Time;durP1;ratioP1;P1;durP2;ratioP2;P2;SDS_P1;SDS_P2;PMS_P1;PMS_P2;Temp;Humidity;BMP_temperature;BMP_pressure;BME280_temperature;BME280_humidity;BME280_pressure;Samples;Min_cycle;Max_cycle;Signal;HPM_P1;HPM_P2
2021/09/10 00:02:07;;;;;;;8.97;8.07;;;20.80;99.90;;;;;;5073913;28;20469;-74
2021/09/10 00:04:35;;;;;;;9.63;8.63;;;20.80;99.90;;;;;;5074102;28;20853;-74
2021/09/10 00:07:02;;;;;;;9.23;8.30;;;20.80;99.90;;;;;;5074148;28;20446;-74
2021/09/10 00:09:29;;;;;;;8.73;7.70;;;20.80;99.90;;;;;;5073523;28;20562;-74
2021/09/10 00:11:56;;;;;;;10.23;8.90;;;20.80;99.90;;;;;;5076824;28;20810;-74
2021/09/10 00:14:22;;;;;;;13.03;7.83;;;20.70;99.90;;;;;;5077641;28;20480;-74
2021/09/10 00:16:49;;;;;;;9.33;8.43;;;20.70;99.90;;;;;;5077180;28;20478;-74
2021/09/10 00:19:16;;;;;;;10.17;9.10;;;20.70;99.90;;;;;;5077125;28;20458;-74
2021/09/10 00:21:44;;;;;;;10.53;8.67;;;20.70;99.90;;;;;;5077171;28;20458;-74
2021/09/10 00:24:10;;;;;;;10.52;8.80;;;20.70;99.90;;;;;;5077320;28;20469;-74
2021/09/10 00:26:40;;;;;;;10.60;8.67;;;20.70;99.90;;;;;;5077434;28;20279;-74
2021/09/10 00:29:06;;;;;;;9.70;8.43;;;20.70;99.90;;;;;;5077298;28;20558;-74
2021/09/10 00:31:33;;;;;;;10.17;8.60;;;20.70;99.90;;;;;;5077396;28;20212;-74
2021/09/10 00:34:00;;;;;;;8.48;7.68;;;20.70;99.90;;;;;;5077377;28;20462;-74
2021/09/10 00:36:29;;;;;;;10.13;7.77;;;20.70;99.90;;;;;;5076544;28;20220;-74
2021/09/10 00:38:57;;;;;;;8.63;7.83;;;20.70;99.90;;;;;;5077111;28;20545;-74
2021/09/10 00:41:23;;;;;;;10.80;9.50;;;20.60;99.90;;;;;;5076595;28;20494;-74
2021/09/10 00:43:50;;;;;;;13.03;8.27;;;20.60;99.90;;;;;;5076603;28;20438;-74
2021/09/10 00:46:17;;;;;;;9.33;7.90;;;20.50;99.90;;;;;;5076405;28;20454;-74
2021/09/10 00:48:44;;;;;;;11.00;8.40;;;20.40;99.90;;;;;;5077099;28;20458;-74
2021/09/10 00:51:11;;;;;;;10.77;9.20;;;20.40;99.90;;;;;;5076736;28;20473;-74
2021/09/10 00:53:38;;;;;;;11.70;9.03;;;20.40;99.90;;;;;;5076557;28;20454;-74
2021/09/10 00:56:09;;;;;;;9.30;8.40;;;20.30;99.90;;;;;;5076923;28;20489;-74
2021/09/10 00:58:35;;;;;;;10.23;8.87;;;20.30;99.90;;;;;;5076872;28;20446;-74
2021/09/10 01:01:02;;;;;;;10.03;9.13;;;20.30;99.90;;;;;;5076407;28;20459;-73
2021/09/10 01:03:29;;;;;;;10.00;9.00;;;20.20;99.90;;;;;;5076751;28;20534;-73
2021/09/10 01:05:57;;;;;;;14.98;9.32;;;20.20;99.90;;;;;;5076332;28;20454;-73
2021/09/10 01:08:25;;;;;;;14.30;9.00;;;20.20;99.90;;;;;;5076539;28;20204;-73
2021/09/10 01:10:53;;;;;;;10.60;9.50;;;20.20;99.90;;;;;;5076180;28;20462;-74
2021/09/10 01:13:23;;;;;;;9.97;9.03;;;20.20;99.90;;;;;;5076036;28;20462;-73
2021/09/10 01:15:50;;;;;;;13.02;10.30;;;20.10;99.90;;;;;;5076221;28;20482;-74
2021/09/10 01:18:16;;;;;;;9.93;8.93;;;20.10;99.90;;;;;;5076363;28;20204;-74
2021/09/10 01:20:43;;;;;;;9.80;8.90;;;20.20;99.90;;;;;;5076477;28;20466;-74
2021/09/10 01:23:10;;;;;;;10.47;9.50;;;20.20;99.90;;;;;;5075564;28;20454;-74
2021/09/10 01:25:39;;;;;;;10.60;9.60;;;20.10;99.90;;;;;;5076032;28;20450;-74
2021/09/10 01:28:05;;;;;;;10.20;8.90;;;20.10;99.90;;;;;;5075931;28;20791;-74
2021/09/10 01:30:38;;;;;;;11.55;9.85;;;20.10;99.90;;;;;;5075911;28;20469;-74
2021/09/10 01:33:08;;;;;;;10.03;8.87;;;20.00;99.90;;;;;;5075799;28;20188;-74
2021/09/10 01:35:39;;;;;;;9.95;9.05;;;20.10;99.90;;;;;;5075914;28;20799;-73
2021/09/10 01:38:08;;;;;;;17.40;9.57;;;20.00;99.90;;;;;;5075719;28;20207;-73
2021/09/10 01:40:35;;;;;;;11.73;9.33;;;20.00;99.90;;;;;;5076129;28;20465;-73
2021/09/10 01:43:04;;;;;;;11.00;9.90;;;20.00;99.90;;;;;;5075154;28;20494;-73
2021/09/10 01:45:30;;;;;;;10.73;9.27;;;20.00;99.90;;;;;;5075700;28;20524;-74
2021/09/10 01:47:57;;;;;;;14.63;9.40;;;19.90;99.90;;;;;;5075519;28;20466;-73
2021/09/10 01:50:25;;;;;;;10.77;9.30;;;19.90;99.90;;;;;;5075615;28;20459;-74
2021/09/10 01:52:52;;;;;;;12.60;10.10;;;19.80;99.90;;;;;;5075368;28;20462;-74
2021/09/10 01:55:19;;;;;;;10.03;9.03;;;19.80;99.90;;;;;;5075451;28;20454;-73
2021/09/10 01:57:48;;;;;;;10.20;9.13;;;19.80;99.90;;;;;;5075574;28;20466;-74
2021/09/10 02:00:19;;;;;;;12.83;10.07;;;19.80;99.90;;;;;;5075413;28;20450;-74
2021/09/10 02:02:46;;;;;;;10.00;9.10;;;19.80;99.90;;;;;;5075446;28;20445;-74
2021/09/10 02:05:13;;;;;;;10.90;9.43;;;19.80;99.90;;;;;;5075941;28;20454;-73
2021/09/10 02:07:40;;;;;;;10.93;9.90;;;19.80;99.90;;;;;;5075117;28;20453;-74
2021/09/10 02:10:09;;;;;;;9.93;8.70;;;19.70;99.90;;;;;;5075094;28;20923;-76
2021/09/10 02:12:36;;;;;;;10.90;9.70;;;19.70;99.90;;;;;;5074790;28;20450;-75
2021/09/10 02:15:07;;;;;;;16.27;10.30;;;19.70;99.90;;;;;;5075310;28;20462;-75
2021/09/10 02:17:35;;;;;;;11.03;9.97;;;19.70;99.90;;;;;;5076074;28;20477;-75
2021/09/10 02:20:01;;;;;;;11.30;10.10;;;19.60;99.90;;;;;;5075344;28;20454;-74
2021/09/10 02:22:28;;;;;;;10.83;9.73;;;19.60;99.90;;;;;;5075942;28;20200;-74
2021/09/10 02:24:55;;;;;;;11.43;10.17;;;19.60;99.90;;;;;;5075751;28;20466;-74
2021/09/10 02:27:21;;;;;;;11.90;10.70;;;19.70;99.90;;;;;;5075510;28;20783;-75
2021/09/10 02:29:48;;;;;;;11.33;10.00;;;19.60;99.90;;;;;;5074926;28;20454;-73
2021/09/10 02:32:15;;;;;;;11.40;10.20;;;19.60;99.90;;;;;;5075041;28;20469;-73
2021/09/10 02:34:45;;;;;;;11.73;10.53;;;19.50;99.90;;;;;;5074390;28;20481;-73
2021/09/10 02:37:15;;;;;;;11.50;10.30;;;19.50;99.90;;;;;;5074629;28;20469;-73
2021/09/10 02:39:42;;;;;;;10.80;9.80;;;19.50;99.90;;;;;;5074979;28;20454;-73
2021/09/10 02:42:08;;;;;;;12.20;9.95;;;19.50;99.90;;;;;;5074415;28;20979;-75
2021/09/10 02:44:35;;;;;;;11.40;10.30;;;19.60;99.90;;;;;;5074971;28;20485;-73
2021/09/10 02:47:02;;;;;;;12.27;10.80;;;19.50;99.90;;;;;;5074906;28;20515;-73
2021/09/10 02:49:29;;;;;;;21.10;15.47;;;19.50;99.90;;;;;;5074394;28;20929;-73
2021/09/10 02:51:57;;;;;;;12.33;10.80;;;19.50;99.90;;;;;;5074912;28;20524;-73
2021/09/10 02:54:24;;;;;;;11.97;10.73;;;19.50;99.90;;;;;;5074731;28;20925;-73
2021/09/10 02:56:50;;;;;;;11.27;9.40;;;19.40;99.90;;;;;;5074910;28;20788;-74
2021/09/10 02:59:20;;;;;;;11.98;10.75;;;19.40;99.90;;;;;;5074879;28;20795;-73
2021/09/10 03:01:47;;;;;;;11.13;10.03;;;19.40;99.90;;;;;;5074668;28;20533;-73
2021/09/10 03:04:15;;;;;;;14.17;10.87;;;19.40;99.90;;;;;;5074589;28;20457;-74
2021/09/10 03:06:41;;;;;;;12.13;10.97;;;19.40;99.90;;;;;;5074505;28;20454;-73
2021/09/10 03:09:10;;;;;;;10.77;9.60;;;19.40;99.90;;;;;;5074669;28;20469;-73
2021/09/10 03:11:36;;;;;;;12.33;10.67;;;19.30;99.90;;;;;;5075037;28;20454;-74
2021/09/10 03:14:03;;;;;;;11.20;10.20;;;19.30;99.90;;;;;;5074545;28;20458;-73
2021/09/10 03:16:31;;;;;;;11.57;10.10;;;19.30;99.90;;;;;;5074137;28;20474;-73
2021/09/10 03:18:58;;;;;;;13.07;11.77;;;19.20;99.90;;;;;;5074541;28;20464;-73
2021/09/10 03:21:25;;;;;;;10.50;9.50;;;19.20;99.90;;;;;;5074875;28;20849;-74
2021/09/10 03:23:51;;;;;;;11.47;10.27;;;19.10;99.90;;;;;;5074766;28;20454;-73
2021/09/10 03:26:19;;;;;;;14.63;9.90;;;19.10;99.90;;;;;;5074313;28;20454;-74
2021/09/10 03:28:46;;;;;;;14.60;11.53;;;19.10;99.90;;;;;;5074879;28;20461;-75
2021/09/10 03:31:16;;;;;;;11.73;10.33;;;19.10;99.90;;;;;;5074133;28;20520;-74
2021/09/10 03:33:42;;;;;;;18.73;11.32;;;19.10;99.90;;;;;;5075403;28;20446;-74
2021/09/10 03:36:09;;;;;;;11.47;10.40;;;19.10;99.90;;;;;;5074486;28;20227;-74
2021/09/10 03:38:36;;;;;;;11.33;10.23;;;19.10;99.90;;;;;;5074567;28;20454;-74
2021/09/10 03:41:07;;;;;;;12.23;11.03;;;19.10;99.90;;;;;;5074730;28;20493;-74
2021/09/10 03:43:37;;;;;;;12.23;11.10;;;19.10;99.90;;;;;;5074852;28;20477;-74
2021/09/10 03:46:04;;;;;;;12.20;10.90;;;19.00;99.90;;;;;;5077677;28;20933;-73
2021/09/10 03:48:30;;;;;;;11.90;10.70;;;19.00;99.90;;;;;;5078450;28;20536;-73
2021/09/10 03:50:59;;;;;;;12.00;10.43;;;19.00;99.90;;;;;;5078820;28;20465;-73
2021/09/10 03:53:26;;;;;;;12.32;11.13;;;18.90;99.90;;;;;;5080939;28;20454;-74
2021/09/10 03:55:54;;;;;;;12.80;11.52;;;18.90;99.90;;;;;;5081996;28;20800;-74
2021/09/10 03:58:21;;;;;;;12.43;11.13;;;18.90;99.90;;;;;;5079031;28;20593;-74
2021/09/10 04:00:49;;;;;;;13.33;11.30;;;19.00;99.90;;;;;;5078510;28;20472;-73
2021/09/10 04:03:16;;;;;;;15.97;12.27;;;18.90;99.90;;;;;;5078316;28;20465;-74
2021/09/10 04:05:45;;;;;;;13.67;12.27;;;18.90;99.90;;;;;;5078098;28;20450;-74
2021/09/10 04:08:12;;;;;;;14.27;12.77;;;18.80;99.90;;;;;;5078246;28;20515;-74
2021/09/10 04:10:38;;;;;;;13.43;12.05;;;18.80;99.90;;;;;;5078732;28;20937;-73
2021/09/10 04:13:05;;;;;;;14.20;12.70;;;18.80;99.90;;;;;;5078322;28;20651;-74
2021/09/10 04:15:32;;;;;;;20.50;11.77;;;18.80;99.90;;;;;;5080012;28;20465;-73
2021/09/10 04:18:01;;;;;;;13.13;11.73;;;18.70;99.90;;;;;;5082912;28;20568;-74
2021/09/10 04:20:29;;;;;;;17.20;11.70;;;18.70;99.90;;;;;;5078357;28;20493;-74
2021/09/10 04:22:57;;;;;;;13.40;12.10;;;18.70;99.90;;;;;;5078482;28;20450;-74
2021/09/10 04:25:24;;;;;;;14.83;12.80;;;18.60;99.90;;;;;;5078139;28;20462;-74
2021/09/10 04:27:50;;;;;;;13.35;12.02;;;18.60;99.90;;;;;;5078164;28;20454;-74
2021/09/10 04:30:17;;;;;;;13.30;12.00;;;18.60;99.90;;;;;;5078222;28;20265;-74
2021/09/10 04:32:44;;;;;;;16.20;12.53;;;18.60;99.90;;;;;;5077329;28;20458;-74
2021/09/10 04:35:13;;;;;;;13.13;11.67;;;18.60;99.90;;;;;;5076656;28;20458;-74
2021/09/10 04:37:41;;;;;;;13.90;12.23;;;18.60;99.90;;;;;;5077284;28;20514;-74
2021/09/10 04:40:09;;;;;;;14.07;12.20;;;18.70;99.90;;;;;;5077094;28;20791;-74
2021/09/10 04:42:36;;;;;;;14.30;12.83;;;18.60;99.90;;;;;;5076701;28;20512;-74
2021/09/10 04:45:03;;;;;;;13.10;11.73;;;18.60;99.90;;;;;;5077179;28;20455;-73
2021/09/10 04:47:30;;;;;;;13.57;11.93;;;18.50;99.90;;;;;;5076749;28;20447;-74
2021/09/10 04:49:57;;;;;;;14.70;12.30;;;18.50;99.90;;;;;;5076739;28;20838;-74
2021/09/10 04:52:25;;;;;;;13.10;11.57;;;18.50;99.90;;;;;;5077058;28;20458;-74
2021/09/10 04:54:53;;;;;;;13.63;12.32;;;18.60;99.90;;;;;;5077044;28;20459;-74
2021/09/10 04:57:22;;;;;;;16.27;11.77;;;18.60;99.90;;;;;;5075844;28;20588;-74
2021/09/10 04:59:49;;;;;;;16.88;12.75;;;18.70;99.90;;;;;;5076266;28;20515;-74
2021/09/10 05:02:15;;;;;;;16.23;12.97;;;18.70;99.90;;;;;;5076580;28;20515;-74
2021/09/10 05:04:42;;;;;;;15.43;11.90;;;18.80;99.90;;;;;;5076577;28;20458;-74
2021/09/10 05:07:09;;;;;;;14.17;12.67;;;18.70;99.90;;;;;;5076699;28;20200;-74
2021/09/10 05:09:37;;;;;;;15.33;12.70;;;18.80;99.90;;;;;;5076512;28;20462;-74
2021/09/10 05:12:04;;;;;;;13.20;11.90;;;18.80;99.90;;;;;;5076669;28;20817;-74
2021/09/10 05:14:31;;;;;;;13.80;12.33;;;18.80;99.90;;;;;;5076475;28;20466;-74
2021/09/10 05:16:57;;;;;;;16.87;12.53;;;18.80;99.90;;;;;;5076105;28;20834;-74
2021/09/10 05:19:24;;;;;;;14.95;13.32;;;18.80;99.90;;;;;;5076304;28;20458;-74
2021/09/10 05:21:51;;;;;;;17.20;13.40;;;18.80;99.90;;;;;;5075975;28;20257;-75
2021/09/10 05:24:17;;;;;;;15.07;13.03;;;18.90;99.90;;;;;;5075781;28;20257;-74
2021/09/10 05:26:46;;;;;;;14.10;12.67;;;18.90;99.90;;;;;;5075880;28;20466;-74
2021/09/10 05:29:13;;;;;;;13.87;12.47;;;19.00;99.90;;;;;;5076000;28;20519;-74
2021/09/10 05:31:40;;;;;;;13.63;12.40;;;19.00;99.90;;;;;;5075750;28;20468;-74
2021/09/10 05:34:06;;;;;;;13.60;12.20;;;19.00;99.90;;;;;;5075345;28;20462;-73
2021/09/10 05:36:33;;;;;;;14.33;12.83;;;19.00;99.90;;;;;;5075689;28;20515;-74
2021/09/10 05:39:00;;;;;;;14.88;13.38;;;19.10;99.90;;;;;;5075800;28;20465;-74
2021/09/10 05:41:27;;;;;;;14.50;13.00;;;19.10;99.90;;;;;;5075291;28;20239;-74
2021/09/10 05:43:55;;;;;;;22.60;12.97;;;19.20;99.90;;;;;;5076278;28;20469;-74
2021/09/10 05:46:21;;;;;;;15.60;14.00;;;19.20;99.90;;;;;;5075392;28;20455;-74
2021/09/10 05:48:48;;;;;;;27.87;14.20;;;19.20;99.90;;;;;;5075214;28;20215;-73
2021/09/10 05:51:15;;;;;;;13.77;12.27;;;19.20;99.90;;;;;;5075378;28;20462;-73
2021/09/10 05:53:41;;;;;;;15.30;13.67;;;19.20;99.90;;;;;;5075463;28;20454;-74
2021/09/10 05:56:08;;;;;;;15.37;13.70;;;19.20;99.90;;;;;;5075309;28;20459;-74
2021/09/10 05:58:35;;;;;;;15.63;13.43;;;19.20;99.90;;;;;;5075418;28;20836;-74
2021/09/10 06:01:03;;;;;;;16.00;14.30;;;19.30;99.90;;;;;;5074738;28;20454;-74
2021/09/10 06:03:30;;;;;;;15.47;13.87;;;19.30;99.90;;;;;;5075074;28;20458;-74
2021/09/10 06:05:56;;;;;;;15.03;13.50;;;19.40;99.90;;;;;;5075033;28;20827;-74
2021/09/10 06:08:23;;;;;;;17.30;13.60;;;19.40;99.90;;;;;;5074061;28;20458;-74
2021/09/10 06:10:50;;;;;;;15.90;13.57;;;19.40;99.90;;;;;;5074887;28;20458;-74
2021/09/10 06:13:18;;;;;;;15.30;13.70;;;19.50;99.90;;;;;;5075372;28;20461;-74
2021/09/10 06:15:45;;;;;;;17.13;14.40;;;19.50;99.90;;;;;;5074969;28;20458;-73
2021/09/10 06:18:14;;;;;;;14.63;13.23;;;19.50;99.90;;;;;;5074606;28;20478;-74
2021/09/10 06:20:40;;;;;;;15.23;13.63;;;19.60;99.90;;;;;;5074525;28;20458;-74
2021/09/10 06:23:07;;;;;;;15.80;14.17;;;19.60;99.90;;;;;;5074472;28;20207;-74
2021/09/10 06:25:34;;;;;;;15.77;13.37;;;19.70;99.90;;;;;;5074864;28;20458;-74
2021/09/10 06:28:00;;;;;;;16.37;14.70;;;19.80;99.90;;;;;;5074184;28;20484;-74
2021/09/10 06:30:27;;;;;;;16.17;14.17;;;19.80;99.90;;;;;;5074684;28;20777;-75
2021/09/10 06:32:55;;;;;;;16.90;14.40;;;19.90;99.90;;;;;;5074218;28;20464;-74
2021/09/10 06:35:23;;;;;;;14.67;13.17;;;20.00;99.90;;;;;;5074879;28;20869;-74
2021/09/10 06:37:52;;;;;;;15.93;13.20;;;20.00;99.90;;;;;;5074276;28;20474;-74
2021/09/10 06:40:18;;;;;;;16.93;14.60;;;20.10;99.90;;;;;;5074627;28;20466;-74
2021/09/10 06:42:47;;;;;;;15.47;13.83;;;20.10;99.90;;;;;;5074311;28;20490;-74
2021/09/10 06:45:14;;;;;;;14.87;13.37;;;20.20;99.90;;;;;;5074441;28;20515;-74
2021/09/10 06:47:40;;;;;;;16.10;14.52;;;20.30;99.90;;;;;;5074671;28;20917;-73
2021/09/10 06:50:09;;;;;;;17.67;14.30;;;20.40;99.90;;;;;;5074345;28;20200;-73
2021/09/10 06:52:38;;;;;;;15.80;13.93;;;20.50;99.90;;;;;;5074183;28;20572;-72
2021/09/10 06:55:06;;;;;;;15.57;13.87;;;20.50;99.90;;;;;;5074098;28;20461;-72
2021/09/10 06:57:33;;;;;;;18.17;14.10;;;20.60;99.90;;;;;;5074015;28;20474;-72
2021/09/10 06:59:59;;;;;;;14.17;12.77;;;20.70;99.90;;;;;;5074975;28;20812;-72
2021/09/10 07:02:26;;;;;;;14.60;13.30;;;20.70;99.90;;;;;;5074065;28;20922;-72
2021/09/10 07:04:53;;;;;;;18.20;14.53;;;20.80;99.90;;;;;;5074144;28;20771;-72
2021/09/10 07:07:19;;;;;;;16.93;13.27;;;20.80;99.90;;;;;;5074311;28;20458;-72
2021/09/10 07:09:48;;;;;;;18.30;13.43;;;20.90;99.90;;;;;;5073994;28;20454;-72
2021/09/10 07:12:15;;;;;;;15.00;13.50;;;21.00;99.90;;;;;;5074003;28;20458;-71
2021/09/10 07:14:41;;;;;;;14.00;12.60;;;21.00;99.90;;;;;;5074245;28;20465;-73
2021/09/10 07:17:08;;;;;;;16.98;12.73;;;21.10;99.90;;;;;;5073895;28;20762;-73
2021/09/10 07:19:35;;;;;;;12.93;11.63;;;21.20;99.90;;;;;;5075155;28;20220;-73
2021/09/10 07:22:02;;;;;;;15.33;12.53;;;21.30;99.90;;;;;;5078011;28;20867;-73
2021/09/10 07:24:29;;;;;;;14.00;12.30;;;21.40;99.90;;;;;;5078104;28;20458;-73
2021/09/10 07:26:57;;;;;;;17.13;13.03;;;21.50;99.90;;;;;;5078077;28;20469;-72
2021/09/10 07:29:23;;;;;;;17.52;13.95;;;21.50;99.90;;;;;;5078001;28;20477;-72
2021/09/10 07:31:50;;;;;;;13.63;12.23;;;21.60;99.90;;;;;;5077862;28;20206;-73
2021/09/10 07:34:17;;;;;;;16.17;12.85;;;21.70;99.90;;;;;;5077836;28;20200;-72
2021/09/10 07:36:48;;;;;;;12.93;11.73;;;21.90;99.90;;;;;;5077921;28;20525;-73
2021/09/10 07:39:16;;;;;;;15.43;12.50;;;22.00;99.90;;;;;;5077548;28;20559;-72
2021/09/10 07:41:42;;;;;;;15.87;12.53;;;22.10;99.90;;;;;;5077239;28;20297;-73
2021/09/10 07:44:10;;;;;;;13.53;11.70;;;22.10;99.90;;;;;;5077795;28;20469;-73
2021/09/10 07:46:37;;;;;;;13.83;11.50;;;22.20;99.90;;;;;;5077346;28;20937;-73
2021/09/10 07:49:04;;;;;;;15.03;11.03;;;22.20;99.90;;;;;;5077577;28;20759;-72
2021/09/10 07:51:30;;;;;;;15.27;10.93;;;22.30;99.90;;;;;;5077614;28;20458;-73
2021/09/10 07:53:57;;;;;;;17.38;11.00;;;22.40;99.90;;;;;;5078136;28;20458;-73
2021/09/10 07:56:24;;;;;;;16.57;11.87;;;22.50;99.90;;;;;;5077221;28;20212;-73
2021/09/10 07:58:50;;;;;;;15.87;11.40;;;22.50;99.90;;;;;;5077303;28;20493;-73
2021/09/10 08:01:18;;;;;;;17.33;10.70;;;22.60;99.90;;;;;;5077613;28;20469;-74
2021/09/10 08:03:45;;;;;;;13.03;10.47;;;22.60;99.90;;;;;;5077072;28;20461;-76
2021/09/10 08:06:12;;;;;;;16.90;11.75;;;22.70;99.90;;;;;;5077635;28;20465;-73
2021/09/10 08:08:39;;;;;;;14.90;11.37;;;22.80;99.90;;;;;;5077430;28;20196;-73
2021/09/10 08:11:05;;;;;;;12.07;10.40;;;22.80;99.90;;;;;;5077541;28;20864;-73
2021/09/10 08:13:32;;;;;;;16.87;11.43;;;22.80;99.90;;;;;;5077272;28;20453;-72
2021/09/10 08:15:59;;;;;;;12.50;10.67;;;22.80;99.90;;;;;;5076993;28;20458;-73
2021/09/10 08:18:27;;;;;;;11.60;10.20;;;22.90;99.90;;;;;;5076877;28;20977;-73
2021/09/10 08:20:57;;;;;;;12.37;10.50;;;22.90;99.90;;;;;;5077405;28;20469;-74
2021/09/10 08:23:24;;;;;;;11.07;9.97;;;22.90;99.90;;;;;;5077307;28;20466;-74
2021/09/10 08:25:50;;;;;;;10.43;9.00;;;23.00;99.90;;;;;;5077426;28;20473;-74
2021/09/10 08:28:17;;;;;;;9.40;8.50;;;23.20;99.90;;;;;;5077335;28;20454;-74
2021/09/10 08:30:45;;;;;;;11.20;8.33;;;23.20;99.90;;;;;;5076655;28;20458;-73
2021/09/10 08:33:11;;;;;;;13.03;7.93;;;23.30;99.90;;;;;;5076558;28;20454;-73
2021/09/10 08:35:40;;;;;;;9.97;8.40;;;23.40;99.90;;;;;;5076803;28;20454;-73
2021/09/10 08:38:07;;;;;;;8.10;6.87;;;23.40;99.90;;;;;;5076586;28;20478;-73
2021/09/10 08:40:36;;;;;;;7.70;7.00;;;23.50;99.90;;;;;;5076595;28;20462;-72
2021/09/10 08:43:03;;;;;;;10.73;7.80;;;23.50;99.90;;;;;;5076101;28;20930;-72
2021/09/10 08:45:33;;;;;;;8.00;7.30;;;23.60;99.90;;;;;;5076281;28;20488;-73
2021/09/10 08:48:00;;;;;;;7.50;6.70;;;23.70;99.90;;;;;;5076387;28;20458;-73
2021/09/10 08:50:27;;;;;;;10.30;8.70;;;23.80;99.90;;;;;;5076527;28;20454;-73
2021/09/10 08:52:55;;;;;;;10.27;8.10;;;23.90;99.90;;;;;;5076417;28;21032;-73
2021/09/10 08:55:22;;;;;;;8.40;7.70;;;24.00;99.90;;;;;;5076095;28;20919;-74
2021/09/10 08:57:50;;;;;;;9.07;7.37;;;24.00;99.90;;;;;;5075980;28;20486;-72
2021/09/10 09:00:18;;;;;;;10.73;8.43;;;24.10;99.90;;;;;;5076248;28;20462;-72
2021/09/10 09:03:00;;;;;;;8.77;7.60;;;24.20;99.90;;;;;;5076219;28;20458;-73
2021/09/10 09:05:29;;;;;;;10.20;7.17;;;24.20;99.90;;;;;;5075209;28;20449;-73
2021/09/10 09:08:11;;;;;;;8.63;7.73;;;24.20;99.90;;;;;;5075945;28;20450;-73
2021/09/10 09:10:59;;;;;;;9.20;7.67;;;24.20;99.90;;;;;;5076019;28;20438;-73
2021/09/10 09:13:28;;;;;;;8.77;7.87;;;24.40;99.90;;;;;;5075502;28;20882;-73
2021/09/10 09:16:21;;;;;;;8.83;7.93;;;24.40;99.90;;;;;;5076063;28;20454;-72
2021/09/10 09:18:50;;;;;;;8.30;7.27;;;24.40;99.90;;;;;;5075459;28;20531;-72
2021/09/10 09:21:22;;;;;;;10.00;7.50;;;24.40;99.90;;;;;;5075805;28;20481;-73
2021/09/10 09:23:52;;;;;;;9.10;7.40;;;24.50;99.90;;;;;;5075545;28;20443;-72
2021/09/10 09:26:21;;;;;;;9.80;8.13;;;24.60;99.90;;;;;;5075825;28;20492;-72
2021/09/10 09:28:48;;;;;;;7.67;6.97;;;24.70;99.90;;;;;;5075657;28;20902;-72
2021/09/10 09:31:19;;;;;;;8.23;7.43;;;24.80;99.90;;;;;;5075213;28;20937;-72
2021/09/10 09:33:46;;;;;;;8.90;7.97;;;24.80;99.90;;;;;;5075565;28;20456;-73
2021/09/10 09:36:16;;;;;;;8.90;8.00;;;24.90;99.90;;;;;;5075468;28;20469;-73
2021/09/10 09:38:46;;;;;;;12.40;8.77;;;25.00;99.90;;;;;;5075278;28;20470;-72
2021/09/10 09:41:15;;;;;;;8.80;7.90;;;25.10;99.90;;;;;;5074643;28;20564;-72
2021/09/10 09:43:44;;;;;;;9.90;8.03;;;25.10;99.90;;;;;;5074566;28;20442;-72
2021/09/10 09:46:13;;;;;;;10.03;8.20;;;25.20;99.90;;;;;;5075529;28;20450;-73
2021/09/10 09:48:41;;;;;;;8.73;7.93;;;25.20;99.90;;;;;;5075481;28;20460;-73
2021/09/10 09:51:15;;;;;;;13.10;8.17;;;25.20;99.90;;;;;;5074967;28;20470;-73
2021/09/10 09:53:45;;;;;;;14.33;7.80;;;25.30;99.90;;;;;;5075391;28;20453;-73
2021/09/10 09:56:15;;;;;;;9.60;7.00;;;25.40;99.90;;;;;;5075607;28;20523;-72
2021/09/10 09:58:43;;;;;;;8.07;7.27;;;25.60;99.90;;;;;;5075622;28;20486;-74
2021/09/10 10:01:11;;;;;;;7.23;6.53;;;25.60;99.90;;;;;;5075224;28;20470;-74
2021/09/10 10:03:38;;;;;;;10.70;8.17;;;25.60;99.90;;;;;;5075322;28;20557;-74
2021/09/10 10:06:25;;;;;;;8.20;7.40;;;25.60;99.90;;;;;;5076089;28;20451;-73
2021/09/10 10:08:57;;;;;;;9.10;7.43;;;25.60;99.90;;;;;;5075277;28;20430;-73
2021/09/10 10:11:29;;;;;;;7.53;6.73;;;25.80;99.90;;;;;;5075806;28;20883;-73
2021/09/10 10:13:58;;;;;;;8.67;7.57;;;25.80;99.90;;;;;;5074952;28;20443;-72
2021/09/10 10:16:43;;;;;;;7.97;7.20;;;25.90;99.90;;;;;;5074479;28;20845;-73
2021/09/10 10:19:42;;;;;;;7.60;7.00;;;25.90;99.90;;;;;;5074871;28;20520;-72
2021/09/10 10:22:11;;;;;;;7.50;6.77;;;25.90;99.90;;;;;;5074542;28;20442;-74
2021/09/10 10:24:43;;;;;;;8.47;7.13;;;26.00;99.90;;;;;;5074494;28;20458;-73
2021/09/10 10:27:47;;;;;;;7.37;6.67;;;26.00;99.90;;;;;;5074138;28;20453;-73
2021/09/10 10:30:50;;;;;;;9.70;5.80;;;26.00;99.90;;;;;;5074810;28;20446;-73
2021/09/10 10:33:24;;;;;;;7.70;7.00;;;26.00;99.90;;;;;;5075923;28;20477;-72
2021/09/10 10:35:52;;;;;;;7.27;6.33;;;26.20;99.90;;;;;;5074936;28;20207;-73
2021/09/10 10:38:19;;;;;;;9.37;7.03;;;26.20;99.90;;;;;;5074977;28;20527;-73
2021/09/10 10:40:48;;;;;;;7.47;5.83;;;26.30;99.90;;;;;;5074876;28;20791;-72
2021/09/10 10:43:28;;;;;;;9.93;5.83;;;26.20;99.90;;;;;;5074324;28;20533;-72
2021/09/10 10:46:04;;;;;;;7.17;6.00;;;26.30;99.90;;;;;;5074777;28;20443;-73
2021/09/10 10:48:50;;;;;;;7.67;6.00;;;26.30;99.90;;;;;;5076049;28;20445;-73
2021/09/10 10:51:50;;;;;;;6.43;5.93;;;26.40;99.90;;;;;;5075332;28;20474;-73
2021/09/10 10:54:18;;;;;;;5.60;5.10;;;26.40;99.90;;;;;;5073766;28;20442;-73
2021/09/10 10:56:47;;;;;;;6.03;5.50;;;26.50;99.90;;;;;;5074146;28;20925;-73
2021/09/10 10:59:35;;;;;;;6.60;5.93;;;26.60;99.90;;;;;;5075342;28;20521;-73
2021/09/10 11:02:41;;;;;;;5.73;5.13;;;26.60;99.90;;;;;;5074528;28;20472;-73
2021/09/10 11:05:25;;;;;;;6.10;5.50;;;26.60;99.90;;;;;;5074733;28;20438;-73
2021/09/10 11:07:52;;;;;;;8.47;7.20;;;26.60;99.90;;;;;;5076088;28;20752;-73
2021/09/10 11:10:19;;;;;;;8.45;6.20;;;26.70;99.90;;;;;;5077195;28;20784;-74
2021/09/10 11:12:47;;;;;;;6.40;5.90;;;26.80;99.90;;;;;;5074197;28;20404;-74
2021/09/10 11:15:23;;;;;;;6.20;5.60;;;26.90;99.90;;;;;;5075099;28;20464;-74
2021/09/10 11:17:59;;;;;;;8.10;5.30;;;27.10;99.90;;;;;;5079555;28;20438;-74
2021/09/10 11:20:31;;;;;;;6.40;5.90;;;27.20;99.90;;;;;;5083731;28;20486;-73
2021/09/10 11:22:58;;;;;;;5.63;5.20;;;27.30;99.90;;;;;;5082169;28;20210;-73
2021/09/10 11:25:25;;;;;;;9.30;6.03;;;27.50;99.90;;;;;;5081516;28;20930;-73
2021/09/10 11:27:52;;;;;;;7.63;6.07;;;27.70;99.90;;;;;;5074683;28;20540;-74
2021/09/10 11:30:19;;;;;;;6.75;5.97;;;27.90;99.90;;;;;;5073701;28;20454;-73
2021/09/10 11:32:45;;;;;;;12.90;6.70;;;28.20;99.90;;;;;;5073892;28;20568;-73
2021/09/10 11:35:26;;;;;;;7.23;6.53;;;28.50;99.90;;;;;;5073925;28;20759;-73
2021/09/10 11:37:55;;;;;;;6.00;5.50;;;28.70;99.90;;;;;;5073581;28;20839;-74
2021/09/10 11:40:30;;;;;;;6.73;6.13;;;28.80;99.90;;;;;;5073764;28;20482;-73
2021/09/10 11:43:04;;;;;;;6.80;6.00;;;28.90;99.90;;;;;;5073473;28;20513;-73
2021/09/10 11:45:34;;;;;;;7.53;5.50;;;29.00;99.90;;;;;;5073960;28;20442;-73
2021/09/10 11:48:01;;;;;;;6.70;5.83;;;29.20;99.90;;;;;;5073951;28;20468;-73
2021/09/10 11:50:48;;;;;;;6.23;5.63;;;29.50;99.90;;;;;;5073998;28;20470;-73
2021/09/10 11:53:15;;;;;;;10.27;6.47;;;29.80;99.90;;;;;;5073119;28;20439;-73
2021/09/10 11:55:56;;;;;;;9.23;5.93;;;30.30;90.30;;;;;;5073343;28;20465;-73
2021/09/10 11:58:35;;;;;;;6.03;5.43;;;30.90;40.80;;;;;;5073764;28;20447;-73
2021/09/10 12:01:23;;;;;;;6.87;6.20;;;31.30;9.10;;;;;;5073420;28;20889;-74
2021/09/10 12:03:52;;;;;;;8.00;5.43;;;31.90;1.00;;;;;;5073925;28;20438;-74
2021/09/10 12:06:23;;;;;;;5.77;5.27;;;32.60;1.00;;;;;;5075798;28;20208;-74
2021/09/10 12:09:14;;;;;;;6.40;5.80;;;33.20;1.00;;;;;;5077127;28;20772;-75
2021/09/10 12:12:07;;;;;;;6.23;5.73;;;33.80;1.00;;;;;;5077524;28;20489;-74
2021/09/10 12:14:36;;;;;;;6.30;5.70;;;34.60;1.00;;;;;;5077253;28;20443;-74
2021/09/10 12:17:07;;;;;;;5.50;4.70;;;35.60;1.00;;;;;;5077083;28;20523;-74
2021/09/10 12:19:44;;;;;;;5.40;4.90;;;36.20;1.00;;;;;;5076915;28;20962;-74
2021/09/10 12:25:28;;;;;;;5.80;5.23;;;36.50;1.00;;;;;;5092769;27;20540;-73
2021/09/10 12:28:00;;;;;;;5.80;5.20;;;35.80;1.00;;;;;;5091870;28;20438;-73
2021/09/10 12:30:28;;;;;;;5.80;5.20;;;35.60;1.00;;;;;;5091498;28;20439;-73
2021/09/10 12:32:55;;;;;;;10.07;6.23;;;35.30;1.00;;;;;;5091379;28;20921;-73
2021/09/10 12:35:28;;;;;;;6.63;5.97;;;34.10;1.00;;;;;;5091940;28;20465;-73
2021/09/10 12:37:58;;;;;;;6.60;6.00;;;32.90;1.00;;;;;;5091844;28;20474;-74
2021/09/10 12:40:26;;;;;;;7.67;6.60;;;31.90;1.00;;;;;;5091199;28;20472;-74
2021/09/10 12:42:53;;;;;;;13.60;6.40;;;31.20;1.00;;;;;;5091853;28;20470;-74
2021/09/10 12:45:20;;;;;;;7.80;7.03;;;30.70;1.00;;;;;;5091468;28;20812;-73
2021/09/10 12:47:47;;;;;;;7.20;6.50;;;30.30;1.00;;;;;;5091769;28;20458;-73
2021/09/10 12:50:14;;;;;;;8.47;6.67;;;30.00;1.00;;;;;;5091537;28;20457;-73